createdAt,value
2022-10-04T00:05:42.331Z,97685.53
2022-10-04T00:15:50.408Z,97691.50
2022-10-04T00:25:55.593Z,97685.25
2022-10-04T00:35:57.721Z,97677.06
2022-10-04T00:46:05.951Z,97660.75
2022-10-04T00:56:31.669Z,97675.44
2022-10-04T01:06:36.499Z,97671.06
2022-10-04T01:16:39.035Z,97665.34
2022-10-04T01:26:43.872Z,97657.47
2022-10-04T01:36:47.619Z,97650.13
2022-10-04T01:46:52.620Z,97650.97
2022-10-04T01:57:17.226Z,97649.81
2022-10-04T02:07:20.702Z,97654.22
2022-10-04T02:17:30.125Z,97662.94
2022-10-04T02:27:32.453Z,97646.03
2022-10-04T02:37:35.288Z,97643.06
2022-10-04T02:47:45.840Z,97628.34
2022-10-04T02:57:50.057Z,97625.91
2022-10-04T03:07:53.357Z,97620.19
2022-10-04T03:17:55.629Z,97624.28
2022-10-04T03:28:02.174Z,97630.25
2022-10-04T03:38:11.503Z,97630.78
2022-10-04T03:48:18.175Z,97638.41
2022-10-04T03:58:21.062Z,97626.44
2022-10-04T04:08:23.753Z,97633.25
2022-10-04T04:18:32.382Z,97623.47
2022-10-04T04:28:42.262Z,97632.41
2022-10-04T04:39:03.307Z,97650.41
2022-10-04T04:49:05.983Z,97644.38
2022-10-04T04:59:08.816Z,97674.03
2022-10-04T05:09:24.628Z,97663.44
2022-10-04T05:19:37.288Z,97677.34
2022-10-04T05:29:46.863Z,97688.78
2022-10-04T05:40:03.851Z,97695.56
2022-10-04T05:50:06.216Z,97690.44
2022-10-04T06:00:21.040Z,97690.97
2022-10-04T06:10:45.440Z,97716.53
2022-10-04T06:21:13.043Z,97722.56
2022-10-04T06:31:46.773Z,97728.25
2022-10-04T06:42:07.530Z,97735.31
2022-10-04T06:52:25.482Z,97756.81
2022-10-04T07:02:42.236Z,97760.38
2022-10-04T07:12:53.998Z,97763.91
2022-10-04T07:23:06.137Z,97780.00
2022-10-04T07:33:14.084Z,97768.22
2022-10-04T07:43:30.661Z,97776.91
2022-10-04T07:53:55.683Z,97791.13
2022-10-04T08:04:11.284Z,97797.34
2022-10-04T08:14:44.371Z,97809.66
2022-10-04T08:25:08.432Z,97830.09
2022-10-04T08:35:29.430Z,97836.09
2022-10-04T08:45:44.364Z,97830.25
2022-10-04T08:55:49.790Z,97843.22
2022-10-04T09:06:13.740Z,97835.47
2022-10-04T09:16:22.381Z,97840.88
2022-10-04T09:26:38.428Z,97870.78
2022-10-04T09:36:46.655Z,97856.16
2022-10-04T09:47:14.410Z,97856.47
2022-10-04T09:57:58.466Z,97865.66
2022-10-04T10:08:28.403Z,97874.97
2022-10-04T10:18:59.422Z,97865.28
2022-10-04T10:29:35.528Z,97884.41
2022-10-04T10:40:02.388Z,97880.44
2022-10-04T10:50:28.496Z,97888.66
2022-10-04T11:00:51.858Z,97896.97
2022-10-04T11:11:12.022Z,97886.63
2022-10-04T11:21:29.128Z,97875.94
2022-10-04T11:31:46.002Z,97899.16
2022-10-04T11:41:57.175Z,97891.28
2022-10-04T11:52:49.541Z,97886.25
2022-10-04T12:03:18.892Z,97874.00
2022-10-04T12:13:59.341Z,97866.91
2022-10-04T12:24:27.150Z,97860.81
2022-10-04T12:34:45.424Z,97856.34
2022-10-04T12:44:57.219Z,97859.75
2022-10-04T12:55:40.302Z,97853.50
2022-10-04T13:06:03.082Z,97861.44
2022-10-04T13:26:35.161Z,97856.41
2022-10-04T13:36:46.370Z,97865.13
2022-10-04T13:46:59.099Z,97868.31
2022-10-04T13:57:18.274Z,97874.06
2022-10-04T14:07:38.466Z,97882.44
2022-10-04T14:17:46.415Z,97880.56
2022-10-04T14:28:06.847Z,97890.59
2022-10-04T14:38:14.896Z,97885.53
2022-10-04T14:48:56.118Z,97882.78
2022-10-04T14:59:35.615Z,97880.31
2022-10-04T15:10:01.209Z,97873.25
2022-10-04T15:20:03.430Z,97890.50
2022-10-04T15:30:20.545Z,97866.91
2022-10-04T15:40:34.933Z,97872.31
2022-10-04T15:51:12.115Z,97880.53
2022-10-04T16:01:27.409Z,97887.06
2022-10-04T16:11:47.216Z,97875.50
2022-10-04T16:22:17.531Z,97877.41
2022-10-04T16:32:39.014Z,97891.19
2022-10-04T16:42:49.738Z,97888.09
2022-10-04T16:53:24.083Z,97892.84
2022-10-04T17:03:35.235Z,97898.72
2022-10-04T17:14:01.588Z,97883.19
2022-10-04T17:24:30.275Z,97901.00
2022-10-04T17:34:59.680Z,97896.13
2022-10-04T17:45:25.424Z,97896.59
2022-10-04T17:55:58.770Z,97895.28
2022-10-04T18:06:26.902Z,97915.06
2022-10-04T18:16:49.003Z,97929.50
2022-10-04T18:27:05.115Z,97925.34
2022-10-04T18:37:28.665Z,97938.19
2022-10-04T18:47:39.622Z,97951.59
2022-10-04T18:58:06.394Z,97945.88
2022-10-04T19:08:39.798Z,97939.78
2022-10-04T19:18:57.901Z,97949.38
2022-10-04T19:29:26.135Z,97959.00
2022-10-04T19:39:35.603Z,97950.63
2022-10-04T19:49:44.180Z,97940.06
2022-10-04T19:59:48.575Z,97949.69
2022-10-04T20:10:15.558Z,97926.88
2022-10-04T20:20:43.470Z,97923.09
2022-10-04T20:40:40.497Z,97924.13
2022-10-04T20:50:43.468Z,97940.16
2022-10-04T21:00:57.429Z,97940.44
2022-10-04T21:11:08.862Z,97948.97
2022-10-04T21:21:14.748Z,97947.22
2022-10-04T21:31:17.001Z,97952.91
2022-10-04T21:41:19.078Z,97961.47
2022-10-04T21:51:21.240Z,97964.09
2022-10-04T22:01:23.721Z,97967.34
2022-10-04T22:11:25.972Z,97987.03
2022-10-04T22:21:28.118Z,97981.06
2022-10-04T22:31:30.330Z,97983.25
2022-10-04T22:41:36.052Z,97984.75
2022-10-04T22:51:40.489Z,97973.81
2022-10-04T23:01:43.805Z,97976.13
2022-10-04T23:11:46.687Z,97965.50
2022-10-04T23:21:50.025Z,97933.03
2022-10-04T23:31:52.851Z,97902.38
2022-10-04T23:41:56.947Z,97889.28
2022-10-04T23:52:02.839Z,97869.97
